Biltmor, North Carolina
Current Conditions -  °F | °C
As of 2:54 PM on Friday 24 Oct 2014 (Local Time) from KAVL Reporting Station
Clear Clear  
Wind Chill: 64°   Ceiling: Unl
Heat Index: 64°   Visibility: 10mi
Dew Point: 34°   Wind: 3mph
Humidity: 33%   Direction: 330°NNW
Pressure: 30.04"   Gusts: NA
Location:  35.5527°N, 82.5111°W
Report Text: KAVL 241854Z 33003KT 10SM CLR 18/01 A3004 RMK AO2 SLP159 T01780011
Loading
Personal Weather Stations






























Interactive Weather Map
Tropical Storm Tracking
New forecast layout! Learn more

10-Day Weather Forecast

Advertisements
Track Severe Weather on mobile